Time;durP1;ratioP1;P1;durP2;ratioP2;P2;SDS_P1;SDS_P2;PMS_P1;PMS_P2;Temp;Humidity;BMP_temperature;BMP_pressure;BME280_temperature;BME280_humidity;BME280_pressure;Samples;Min_cycle;Max_cycle;Signal;HPM_P1;HPM_P2
2021/10/11 00:00:41;;;;;;;10.60;6.35;;;;;;;-0.35;85.18;91461.59;5053810;28;20025;-90
2021/10/11 00:03:06;;;;;;;11.20;5.95;;;;;;;-0.31;84.94;91463.41;5037765;28;20028;-90
2021/10/11 00:05:32;;;;;;;11.00;6.30;;;;;;;-0.33;85.49;91462.88;5020958;28;20032;-90
2021/10/11 00:07:57;;;;;;;12.57;6.43;;;;;;;-0.34;85.85;91463.13;5036949;28;20028;-90
2021/10/11 00:10:24;;;;;;;10.65;6.05;;;;;;;-0.38;86.25;91462.84;5036908;28;20032;-90
2021/10/11 00:12:50;;;;;;;11.63;6.18;;;;;;;-0.45;85.58;91457.19;5020479;28;20403;-90
2021/10/11 00:15:17;;;;;;;12.90;6.35;;;;;;;-0.31;84.88;91454.97;5036883;28;20025;-90
2021/10/11 00:17:42;;;;;;;11.55;6.40;;;;;;;-0.21;83.65;91457.56;5037066;28;20029;-89
2021/10/11 00:20:09;;;;;;;9.73;5.82;;;;;;;-0.42;83.97;91464.38;5053772;28;20031;-88
2021/10/11 00:22:34;;;;;;;11.68;6.97;;;;;;;-0.41;86.97;91457.47;5020829;28;20056;-89
2021/10/11 00:24:59;;;;;;;12.90;7.07;;;;;;;-0.39;87.71;91455.41;5004491;28;20493;-89
2021/10/11 00:27:25;;;;;;;12.35;6.55;;;;;;;-0.35;86.73;91457.25;5020741;28;20033;-90
2021/10/11 00:29:50;;;;;;;14.77;6.65;;;;;;;-0.34;86.63;91460.56;5004071;28;20060;-89
2021/10/11 00:32:16;;;;;;;12.20;6.47;;;;;;;-0.33;86.37;91464.66;5021533;28;20020;-89
2021/10/11 00:34:42;;;;;;;14.75;6.85;;;;;;;-0.28;87.50;91462.16;5020307;28;20478;-90
2021/10/11 00:37:08;;;;;;;12.70;6.93;;;;;;;-0.32;87.53;91456.75;5020314;28;20025;-90
2021/10/11 00:39:33;;;;;;;11.10;6.72;;;;;;;-0.31;87.41;91462.66;5020073;28;20035;-90
2021/10/11 00:41:59;;;;;;;11.75;6.05;;;;;;;-0.37;87.25;91458.50;5036342;28;20021;-89
2021/10/11 00:44:24;;;;;;;10.82;6.43;;;;;;;-0.44;87.87;91452.84;5019810;28;20391;-90
2021/10/11 00:46:50;;;;;;;14.10;6.95;;;;;;;-0.49;88.34;91454.34;5083513;23;20023;-91
2021/10/11 00:49:16;;;;;;;12.52;7.13;;;;;;;-0.40;87.04;91461.56;5049514;28;20057;-87
2021/10/11 00:51:42;;;;;;;11.93;6.53;;;;;;;-0.34;86.19;91453.66;5065667;28;20440;-88
2021/10/11 00:54:08;;;;;;;15.13;6.80;;;;;;;-0.30;85.14;91464.19;5066383;28;20028;-88
2021/10/11 00:56:33;;;;;;;12.10;6.50;;;;;;;-0.59;86.48;91469.66;5045218;28;20028;-88
2021/10/11 00:58:59;;;;;;;12.48;6.90;;;;;;;-0.43;85.89;91472.28;5042436;28;20055;-88
2021/10/11 01:01:24;;;;;;;13.65;6.82;;;;;;;-0.62;86.57;91471.94;5061659;28;20020;-88
2021/10/11 01:03:49;;;;;;;16.48;6.45;;;;;;;-0.54;86.45;91479.13;5045035;28;20035;-88
2021/10/11 01:06:15;;;;;;;10.73;6.20;;;;;;;-0.61;85.86;91479.34;5045465;28;20546;-87
2021/10/11 01:08:40;;;;;;;11.85;6.32;;;;;;;-0.62;85.23;91477.03;5044984;28;20041;-88
2021/10/11 01:11:06;;;;;;;9.90;5.50;;;;;;;-0.66;84.60;91479.34;5062029;28;20039;-90
2021/10/11 01:13:31;;;;;;;12.73;5.82;;;;;;;-0.68;84.94;91476.22;5029080;28;20025;-87
2021/10/11 01:15:57;;;;;;;9.60;5.55;;;;;;;-0.71;84.41;91471.59;5044729;28;20017;-88
2021/10/11 01:18:22;;;;;;;9.90;5.75;;;;;;;-0.66;84.50;91465.75;5044666;28;20035;-88
2021/10/11 01:20:48;;;;;;;11.20;5.88;;;;;;;-0.81;85.18;91466.44;5044888;28;20032;-87
2021/10/11 01:23:13;;;;;;;11.05;6.25;;;;;;;-0.87;86.50;91464.84;5044481;28;20168;-87
2021/10/11 01:25:39;;;;;;;10.18;6.07;;;;;;;-0.85;86.20;91453.34;5061415;28;20069;-88
2021/10/11 01:28:04;;;;;;;13.52;6.28;;;;;;;-0.78;87.26;91453.91;5028454;28;20024;-90
2021/10/11 01:30:30;;;;;;;11.13;6.43;;;;;;;-0.66;87.65;91448.63;5044715;28;20033;-88
2021/10/11 01:32:55;;;;;;;9.77;5.82;;;;;;;-0.68;87.65;91447.31;5045391;28;20029;-87
2021/10/11 01:35:21;;;;;;;10.90;6.18;;;;;;;-0.70;87.99;91457.03;5061673;28;20070;-87
2021/10/11 01:37:47;;;;;;;12.98;7.05;;;;;;;-0.67;88.12;91444.50;5044542;28;20064;-88
2021/10/11 01:40:13;;;;;;;11.23;6.38;;;;;;;-0.62;88.04;91452.22;5045046;28;20034;-88
2021/10/11 01:42:38;;;;;;;10.20;6.63;;;;;;;-0.67;88.42;91454.75;5044924;28;20028;-88
2021/10/11 01:45:05;;;;;;;11.82;6.20;;;;;;;-0.68;88.27;91449.88;5028631;28;20020;-88
2021/10/11 01:47:31;;;;;;;12.70;6.00;;;;;;;-0.60;87.46;91455.31;5044531;28;20475;-87
2021/10/11 01:49:56;;;;;;;12.60;6.32;;;;;;;-0.61;86.84;91453.75;5044516;28;20028;-88
2021/10/11 01:52:24;;;;;;;10.60;6.13;;;;;;;-0.79;86.73;91447.25;5044482;28;20024;-87
2021/10/11 01:54:49;;;;;;;8.07;5.20;;;;;;;-0.83;85.95;91445.41;5061327;28;20047;-88
2021/10/11 01:57:16;;;;;;;9.68;5.25;;;;;;;-0.86;85.38;91435.69;5027724;28;20402;-87
2021/10/11 01:59:42;;;;;;;9.23;5.93;;;;;;;-0.76;84.25;91436.50;5024612;28;20111;-88
2021/10/11 02:02:08;;;;;;;11.65;5.07;;;;;;;-0.86;84.49;91435.69;5041090;28;20032;-87
2021/10/11 02:04:33;;;;;;;12.63;5.78;;;;;;;-0.97;85.51;91434.84;5058109;28;20017;-88
2021/10/11 02:06:59;;;;;;;10.45;5.90;;;;;;;-1.06;86.40;91429.41;5024992;28;20371;-88
2021/10/11 02:09:24;;;;;;;12.52;6.07;;;;;;;-0.96;87.40;91426.91;5041049;28;20031;-87
2021/10/11 02:11:50;;;;;;;12.75;6.30;;;;;;;-0.86;87.45;91431.31;5041138;28;20027;-88
2021/10/11 02:14:15;;;;;;;11.80;7.03;;;;;;;-0.86;88.07;91425.44;5024656;28;20059;-87
2021/10/11 02:16:40;;;;;;;11.00;6.00;;;;;;;-0.92;87.76;91416.19;5040826;28;20042;-91
2021/10/11 02:19:06;;;;;;;11.55;5.88;;;;;;;-0.76;87.36;91422.94;5042144;28;20428;-87
2021/10/11 02:21:31;;;;;;;12.93;6.95;;;;;;;-0.79;87.88;91431.13;5054988;28;20394;-88
2021/10/11 02:23:57;;;;;;;12.80;7.00;;;;;;;-0.89;88.31;91426.69;5061254;28;20020;-90
2021/10/11 02:26:23;;;;;;;12.75;6.68;;;;;;;-0.86;88.44;91423.66;5077830;28;20050;-87
2021/10/11 02:28:49;;;;;;;12.25;5.88;;;;;;;-0.90;87.25;91421.84;5060934;28;20024;-87
2021/10/11 02:31:15;;;;;;;12.38;6.15;;;;;;;-0.94;86.47;91419.00;5077436;28;20024;-87
2021/10/11 02:33:40;;;;;;;11.65;6.20;;;;;;;-1.01;86.46;91408.97;5094504;28;20028;-88
2021/10/11 02:36:06;;;;;;;12.25;6.30;;;;;;;-1.04;86.73;91404.34;5077241;28;20073;-88
2021/10/11 02:38:31;;;;;;;10.38;5.97;;;;;;;-1.14;87.18;91401.69;5077581;28;20035;-87
2021/10/11 02:40:57;;;;;;;12.23;5.90;;;;;;;-1.18;87.61;91397.31;5060861;28;20482;-93
2021/10/11 02:43:22;;;;;;;10.70;6.10;;;;;;;-1.18;88.07;91394.78;5060865;28;20028;-88
2021/10/11 02:45:47;;;;;;;10.85;6.40;;;;;;;-1.10;87.19;91395.06;5077482;28;20024;-88
2021/10/11 02:48:13;;;;;;;12.63;6.20;;;;;;;-1.13;86.95;91394.78;5079758;28;20032;-90
2021/10/11 02:50:38;;;;;;;11.05;6.25;;;;;;;-1.09;88.14;91391.53;5076643;28;20031;-90
2021/10/11 02:53:04;;;;;;;11.80;6.82;;;;;;;-1.06;88.53;91390.25;5066876;28;20466;-88
2021/10/11 02:55:29;;;;;;;12.57;6.50;;;;;;;-1.03;88.70;91390.53;5082541;28;20012;-94
2021/10/11 02:57:55;;;;;;;12.10;6.15;;;;;;;-0.95;88.66;91397.00;5101755;28;20023;-93
2021/10/11 03:00:20;;;;;;;10.70;5.75;;;;;;;-0.98;88.89;91394.91;5102087;28;20016;-92
2021/10/11 03:02:46;;;;;;;12.07;6.43;;;;;;;-1.01;88.94;91396.16;5118925;28;20028;-94
2021/10/11 03:05:11;;;;;;;11.73;5.80;;;;;;;-0.96;88.60;91400.53;5071680;28;20051;-88
2021/10/11 03:07:37;;;;;;;14.15;5.55;;;;;;;-0.90;86.63;91396.25;5060621;28;20143;-87
2021/10/11 03:10:02;;;;;;;9.13;5.43;;;;;;;-1.06;87.00;91391.03;5060073;28;20031;-88
2021/10/11 03:12:28;;;;;;;11.30;6.35;;;;;;;-1.16;88.67;91393.50;5076465;28;20055;-89
2021/10/11 03:14:53;;;;;;;9.82;5.57;;;;;;;-1.07;88.87;91404.81;5060307;28;20024;-90
2021/10/11 03:17:19;;;;;;;11.90;5.88;;;;;;;-0.97;88.79;91394.66;5076220;28;20077;-87
2021/10/11 03:19:44;;;;;;;10.43;5.63;;;;;;;-1.04;88.87;91393.34;5093920;28;20069;-88
2021/10/11 03:22:10;;;;;;;13.02;6.72;;;;;;;-0.92;88.87;91393.91;5076476;28;20024;-89
2021/10/11 03:24:35;;;;;;;10.35;5.63;;;;;;;-0.95;88.43;91391.88;5076342;28;20035;-87
2021/10/11 03:27:01;;;;;;;9.75;5.78;;;;;;;-1.00;88.67;91394.38;5059880;28;20402;-87
2021/10/11 03:29:27;;;;;;;8.77;5.60;;;;;;;-1.06;88.29;91401.25;5076443;28;20028;-87
2021/10/11 03:31:52;;;;;;;10.40;5.20;;;;;;;-1.10;88.59;91405.31;5093311;28;20375;-88
2021/10/11 03:34:18;;;;;;;10.85;6.28;;;;;;;-1.07;88.68;91399.72;5059715;28;20128;-88
2021/10/11 03:36:43;;;;;;;12.85;5.57;;;;;;;-1.05;89.09;91402.81;5059820;28;20020;-88
2021/10/11 03:39:08;;;;;;;10.00;5.45;;;;;;;-1.09;88.09;91404.31;5076752;28;20023;-87
2021/10/11 03:41:34;;;;;;;8.80;5.38;;;;;;;-1.12;86.97;91406.59;5059561;28;20024;-88
2021/10/11 03:44:05;;;;;;;11.65;6.10;;;;;;;-1.14;88.04;91411.94;5059300;28;20432;-88
2021/10/11 03:46:31;;;;;;;13.32;6.38;;;;;;;-1.07;86.92;91406.63;5059840;28;20019;-88
2021/10/11 03:48:56;;;;;;;11.85;6.20;;;;;;;-1.10;88.10;91415.53;5059344;28;20047;-88
2021/10/11 03:51:22;;;;;;;11.85;5.80;;;;;;;-1.14;87.66;91414.50;5076038;28;20477;-87
2021/10/11 03:53:48;;;;;;;11.30;6.18;;;;;;;-1.14;87.98;91419.59;5059341;28;20020;-87
2021/10/11 03:56:14;;;;;;;15.15;5.80;;;;;;;-1.15;87.07;91418.06;5057780;28;20016;-90
2021/10/11 03:58:39;;;;;;;12.68;5.70;;;;;;;-1.20;87.43;91415.50;5056372;28;20494;-87
2021/10/11 04:01:05;;;;;;;10.60;5.70;;;;;;;-1.26;87.14;91413.91;5073038;28;20157;-87
2021/10/11 04:03:31;;;;;;;11.77;5.13;;;;;;;-1.26;86.26;91409.56;5072356;28;20020;-88
2021/10/11 04:05:56;;;;;;;9.32;5.75;;;;;;;-1.24;85.89;91409.28;5055544;28;20055;-88
2021/10/11 04:08:23;;;;;;;9.38;5.30;;;;;;;-1.26;85.17;91413.91;5039001;28;20394;-89
2021/10/11 04:13:20;;;;;;;8.88;5.20;;;;;;;-1.21;84.69;91408.81;5072690;28;20048;-89
2021/10/11 04:15:48;;;;;;;11.70;5.40;;;;;;;-1.29;85.60;91402.38;5055828;28;20024;-87
2021/10/11 04:18:14;;;;;;;11.30;5.35;;;;;;;-1.46;86.78;91407.59;5073178;28;20030;-87
2021/10/11 04:20:39;;;;;;;13.00;5.80;;;;;;;-1.38;87.46;91403.03;5072451;28;20099;-87
2021/10/11 04:23:05;;;;;;;12.00;5.93;;;;;;;-1.24;87.83;91399.06;5071790;28;20042;-89
2021/10/11 04:25:30;;;;;;;13.43;5.82;;;;;;;-1.35;88.21;91392.34;5055583;28;20046;-87
2021/10/11 04:27:56;;;;;;;9.48;5.50;;;;;;;-1.27;88.54;91395.22;5072774;28;20020;-88
2021/10/11 04:30:21;;;;;;;10.55;5.82;;;;;;;-1.21;88.71;91389.13;5055479;28;20074;-89
2021/10/11 04:32:47;;;;;;;9.50;5.35;;;;;;;-1.18;88.28;91395.53;5072663;28;20025;-88
2021/10/11 04:35:12;;;;;;;11.15;5.60;;;;;;;-1.13;88.44;91393.03;5038718;28;20371;-87
2021/10/11 04:37:39;;;;;;;12.80;5.30;;;;;;;-1.22;88.79;91394.50;5072849;28;20028;-89
2021/10/11 04:40:05;;;;;;;10.30;5.68;;;;;;;-1.27;88.89;91394.47;5038990;28;20039;-91
2021/10/11 04:42:31;;;;;;;13.00;5.72;;;;;;;-1.31;88.99;91391.63;5055367;28;20390;-87
2021/10/11 04:44:56;;;;;;;10.95;5.85;;;;;;;-1.27;89.38;91402.13;5055390;28;20028;-89
2021/10/11 04:47:21;;;;;;;10.02;5.43;;;;;;;-1.27;89.98;91402.13;5038245;28;20032;-87
2021/10/11 04:49:47;;;;;;;12.13;5.45;;;;;;;-1.31;89.32;91398.50;5055050;28;20024;-88
2021/10/11 04:52:12;;;;;;;11.35;5.55;;;;;;;-1.20;88.64;91405.25;5038636;28;20031;-87
2021/10/11 04:54:38;;;;;;;10.80;5.35;;;;;;;-1.09;88.69;91396.63;5038716;28;20486;-87
2021/10/11 04:57:03;;;;;;;9.43;5.45;;;;;;;-1.02;89.29;91399.00;5055458;28;20478;-88
2021/10/11 04:59:29;;;;;;;10.25;5.28;;;;;;;-1.06;89.27;91411.50;5073510;28;20028;-90
2021/10/11 05:01:54;;;;;;;9.40;4.47;;;;;;;-1.06;88.83;91403.03;5039048;28;20025;-87
2021/10/11 05:04:20;;;;;;;12.25;5.85;;;;;;;-1.08;88.73;91390.50;5055175;28;20028;-87
2021/10/11 05:06:45;;;;;;;15.73;5.60;;;;;;;-1.04;86.17;91383.88;5064822;28;20020;-90
2021/10/11 05:09:10;;;;;;;9.48;5.30;;;;;;;-1.16;88.73;91382.53;5045405;28;20021;-87
2021/10/11 05:11:36;;;;;;;11.45;5.53;;;;;;;-1.00;88.79;91384.91;5038707;28;20494;-88
2021/10/11 05:14:01;;;;;;;7.88;4.78;;;;;;;-1.02;88.02;91383.63;5038744;28;20025;-87
2021/10/11 05:16:27;;;;;;;9.82;5.30;;;;;;;-1.11;88.86;91383.31;5055024;28;20025;-87
2021/10/11 05:18:53;;;;;;;7.15;4.43;;;;;;;-1.21;88.53;91383.22;5039427;28;20028;-87
2021/10/11 05:21:18;;;;;;;15.27;5.63;;;;;;;-1.33;87.40;91377.53;5065935;28;20391;-88
2021/10/11 05:23:44;;;;;;;9.52;4.97;;;;;;;-1.40;87.19;91380.28;5074597;28;20486;-89
2021/10/11 05:26:09;;;;;;;12.48;5.82;;;;;;;-1.42;89.58;91381.53;5042142;28;20497;-89
2021/10/11 05:28:35;;;;;;;9.85;5.28;;;;;;;-1.42;89.59;91382.31;5075184;28;20023;-88
2021/10/11 05:31:00;;;;;;;11.18;5.20;;;;;;;-1.39;88.02;91375.94;5041805;28;20035;-87
2021/10/11 05:33:26;;;;;;;9.43;4.45;;;;;;;-1.41;87.84;91378.75;5059438;28;20506;-87
2021/10/11 05:35:53;;;;;;;11.27;4.93;;;;;;;-1.41;87.95;91378.75;5061551;28;20016;-87
2021/10/11 05:38:19;;;;;;;10.35;5.25;;;;;;;-1.25;86.85;91387.31;5045275;28;20028;-89
2021/10/11 05:40:45;;;;;;;11.88;5.35;;;;;;;-1.38;86.87;91387.69;5078553;28;20504;-90
2021/10/11 05:43:10;;;;;;;10.43;4.50;;;;;;;-1.41;87.46;91377.97;5078823;28;20027;-87
2021/10/11 05:45:36;;;;;;;8.88;4.78;;;;;;;-1.43;86.53;91387.69;5045635;28;20043;-87
2021/10/11 05:48:01;;;;;;;10.77;5.22;;;;;;;-1.49;86.98;91392.72;5044913;28;20019;-88
2021/10/11 05:50:26;;;;;;;9.15;4.78;;;;;;;-1.50;86.04;91391.19;5061687;28;20367;-86
2021/10/11 05:52:52;;;;;;;11.30;4.80;;;;;;;-1.60;87.45;91392.88;5061221;28;20024;-87
2021/10/11 05:55:17;;;;;;;10.93;5.45;;;;;;;-1.40;87.91;91389.75;5061255;28;20032;-89
2021/10/11 05:57:43;;;;;;;8.95;5.22;;;;;;;-1.42;87.61;91397.66;5096542;28;20095;-88
2021/10/11 06:00:10;;;;;;;8.27;4.60;;;;;;;-1.46;87.56;91397.34;5078341;28;20473;-88
2021/10/11 06:02:35;;;;;;;10.07;4.60;;;;;;;-1.28;87.13;91408.25;5060767;28;20022;-87
2021/10/11 06:05:01;;;;;;;9.68;4.93;;;;;;;-1.39;86.36;91411.75;5060486;28;20016;-88
2021/10/11 06:07:27;;;;;;;8.30;4.93;;;;;;;-1.30;85.89;91410.28;5043606;28;20104;-87
2021/10/11 06:09:53;;;;;;;8.07;4.97;;;;;;;-1.42;85.43;91418.09;5060000;28;20446;-88
2021/10/11 06:12:18;;;;;;;10.63;5.22;;;;;;;-1.55;86.66;91429.50;5060108;28;20027;-88
2021/10/11 06:14:44;;;;;;;10.88;6.00;;;;;;;-1.61;87.30;91433.03;5060050;28;20547;-87
2021/10/11 06:17:09;;;;;;;12.20;5.63;;;;;;;-1.56;88.21;91435.63;5059835;28;20024;-87
2021/10/11 06:19:35;;;;;;;9.65;5.05;;;;;;;-1.37;88.56;91442.97;5059874;28;20028;-89
2021/10/11 06:22:00;;;;;;;8.73;5.18;;;;;;;-1.36;88.12;91436.81;5076339;28;20024;-87
2021/10/11 06:24:26;;;;;;;12.63;5.43;;;;;;;-1.28;87.96;91439.69;5076780;28;20096;-88
2021/10/11 06:26:51;;;;;;;12.07;5.47;;;;;;;-1.28;88.31;91433.81;5043190;28;20474;-88
2021/10/11 06:29:17;;;;;;;9.02;5.07;;;;;;;-1.26;87.73;91426.69;5043178;28;20477;-88
2021/10/11 06:31:42;;;;;;;7.38;4.75;;;;;;;-1.12;87.20;91427.81;5076399;28;20101;-87
2021/10/11 06:34:08;;;;;;;9.25;4.97;;;;;;;-1.11;87.23;91431.91;5093363;28;20024;-88
2021/10/11 06:36:36;;;;;;;12.98;6.68;;;;;;;-1.07;87.15;91439.88;5098361;28;20011;-92
2021/10/11 06:39:05;;;;;;;11.48;5.95;;;;;;;-0.95;88.24;91437.94;5076870;28;20438;-88
2021/10/11 06:41:30;;;;;;;9.80;5.25;;;;;;;-0.86;87.96;91440.78;5043528;28;20024;-87
2021/10/11 06:43:56;;;;;;;9.70;4.50;;;;;;;-0.72;87.26;91437.56;5060511;28;20028;-88
2021/10/11 06:46:22;;;;;;;11.68;6.47;;;;;;;-0.68;86.37;91427.59;5063528;28;20016;-87
2021/10/11 06:49:48;;;;;;;8.63;4.85;;;;;;;-0.64;85.95;91431.19;5090035;27;20370;-88
2021/10/11 06:52:14;;;;;;;9.70;5.40;;;;;;;-0.57;85.49;91438.66;5072160;28;20400;-88
2021/10/11 06:54:40;;;;;;;10.52;6.55;;;;;;;-0.52;85.49;91433.59;5126021;27;20047;-89
2021/10/11 06:57:05;;;;;;;9.02;4.90;;;;;;;-0.38;85.44;91436.47;5059126;28;20025;-88
2021/10/11 06:59:30;;;;;;;7.75;5.22;;;;;;;-0.40;85.13;91434.16;5088083;28;20031;-90
2021/10/11 07:01:56;;;;;;;10.73;6.50;;;;;;;-0.46;85.44;91434.38;5097689;28;20016;-91
2021/10/11 07:04:22;;;;;;;10.70;5.90;;;;;;;-0.44;85.70;91440.03;5080424;28;20009;-90
2021/10/11 07:06:47;;;;;;;13.05;6.03;;;;;;;-0.38;86.07;91444.94;5065768;28;20032;-90
2021/10/11 07:09:13;;;;;;;12.52;5.50;;;;;;;-0.28;86.54;91442.44;5072959;28;20035;-89
2021/10/11 07:11:38;;;;;;;10.23;5.70;;;;;;;-0.17;87.55;91453.50;5071299;28;20039;-89
2021/10/11 07:14:04;;;;;;;9.95;5.63;;;;;;;-0.07;87.28;91450.97;5054610;28;20496;-89
2021/10/11 07:16:31;;;;;;;10.88;5.93;;;;;;;0.00;87.36;91445.63;5054584;28;20081;-89
2021/10/11 07:18:56;;;;;;;12.77;6.03;;;;;;;0.07;87.40;91437.69;5071607;28;20024;-90
2021/10/11 07:21:22;;;;;;;12.30;6.53;;;;;;;0.15;87.12;91430.28;5054441;28;20442;-89
2021/10/11 07:23:47;;;;;;;12.55;6.10;;;;;;;0.35;88.11;91429.56;5055148;28;20036;-89
2021/10/11 07:26:13;;;;;;;12.48;5.93;;;;;;;0.46;90.68;91435.50;5071758;28;20400;-89
2021/10/11 07:28:38;;;;;;;7.35;4.45;;;;;;;0.73;89.74;91452.47;5071712;28;20404;-89
2021/10/11 07:31:04;;;;;;;12.23;4.78;;;;;;;0.85;88.07;91452.97;5071524;28;20511;-89
2021/10/11 07:33:29;;;;;;;9.05;4.70;;;;;;;0.95;87.83;91448.66;5054558;28;20504;-89
2021/10/11 07:35:55;;;;;;;9.85;4.70;;;;;;;1.10;86.92;91447.88;5054882;28;20400;-89
2021/10/11 07:38:20;;;;;;;9.50;5.10;;;;;;;1.15;86.81;91440.16;5054242;28;20051;-89
2021/10/11 07:40:46;;;;;;;10.52;5.13;;;;;;;1.39;88.06;91437.06;5087830;28;20473;-90
2021/10/11 07:43:11;;;;;;;11.60;5.38;;;;;;;1.58;88.85;91447.56;5054339;28;20028;-87
2021/10/11 07:45:37;;;;;;;8.63;4.63;;;;;;;1.65;88.27;91443.69;5071079;28;20024;-90
2021/10/11 07:48:03;;;;;;;10.82;5.15;;;;;;;1.78;87.90;91436.50;5072157;28;20032;-89
2021/10/11 07:50:29;;;;;;;10.13;5.45;;;;;;;1.96;88.21;91448.00;5054720;28;20028;-89
2021/10/11 07:52:54;;;;;;;8.40;4.95;;;;;;;2.15;87.84;91454.09;5071233;28;20028;-89
2021/10/11 07:55:20;;;;;;;9.88;5.50;;;;;;;2.28;87.83;91447.63;5054208;28;20419;-89
2021/10/11 07:57:45;;;;;;;12.10;5.25;;;;;;;2.54;87.26;91446.44;5087956;28;20012;-90
2021/10/11 08:00:14;;;;;;;12.30;5.47;;;;;;;2.68;87.89;91453.59;5062577;28;20464;-89
2021/10/11 08:02:40;;;;;;;7.82;5.00;;;;;;;3.02;86.90;91446.69;5041573;28;20029;-92
2021/10/11 08:05:06;;;;;;;10.75;5.20;;;;;;;3.10;87.48;91448.66;5074847;28;20384;-90
2021/10/11 08:07:31;;;;;;;8.00;4.82;;;;;;;3.18;87.53;91449.13;5058014;28;20025;-90
2021/10/11 08:09:57;;;;;;;8.95;4.85;;;;;;;3.26;86.57;91446.75;5057681;28;20442;-90
2021/10/11 08:12:22;;;;;;;9.32;5.00;;;;;;;3.33;86.14;91447.22;5058082;28;20468;-89
2021/10/11 08:14:48;;;;;;;7.88;5.22;;;;;;;3.46;85.07;91460.50;5040311;28;20551;-89
2021/10/11 08:17:13;;;;;;;8.68;5.28;;;;;;;3.63;85.25;91463.44;5074491;28;20025;-89
2021/10/11 08:19:38;;;;;;;10.23;5.53;;;;;;;3.82;86.90;91463.53;5039514;28;20021;-89
2021/10/11 08:22:04;;;;;;;11.35;5.70;;;;;;;3.98;87.65;91466.72;5057948;28;20420;-89
2021/10/11 08:24:30;;;;;;;12.88;7.00;;;;;;;4.08;86.76;91448.56;5040733;28;20025;-89
2021/10/11 08:26:55;;;;;;;12.30;6.35;;;;;;;4.24;85.08;91457.69;5057769;28;20048;-90
2021/10/11 08:29:21;;;;;;;9.95;5.40;;;;;;;4.38;82.53;91459.56;5060500;28;20077;-89
2021/10/11 08:31:46;;;;;;;7.90;5.07;;;;;;;4.52;81.03;91457.84;5040677;28;20036;-89
2021/10/11 08:34:12;;;;;;;9.80;5.40;;;;;;;4.71;82.41;91463.81;5073810;28;20029;-87
2021/10/11 08:36:37;;;;;;;9.88;5.53;;;;;;;4.94;83.04;91459.63;5073564;28;20024;-90
2021/10/11 08:39:03;;;;;;;9.40;5.22;;;;;;;5.07;81.83;91463.31;5056626;28;20012;-90
2021/10/11 08:41:28;;;;;;;11.15;6.90;;;;;;;5.29;81.50;91465.31;5039819;28;20022;-90
2021/10/11 08:43:54;;;;;;;11.80;7.13;;;;;;;5.34;79.92;91460.09;5056418;28;20077;-89
2021/10/11 08:46:19;;;;;;;10.10;7.13;;;;;;;5.49;80.60;91472.00;5073394;28;20415;-89
2021/10/11 08:48:44;;;;;;;9.38;5.25;;;;;;;5.53;78.87;91464.44;5056064;28;20392;-89
2021/10/11 08:51:10;;;;;;;9.65;4.63;;;;;;;5.73;76.35;91466.72;5040334;28;20389;-89
2021/10/11 08:53:36;;;;;;;7.32;4.32;;;;;;;5.86;74.93;91462.59;5073580;28;20028;-90
2021/10/11 08:56:02;;;;;;;8.40;4.60;;;;;;;6.01;78.72;91464.19;5072809;28;20024;-89
2021/10/11 08:58:27;;;;;;;5.38;3.53;;;;;;;6.17;74.27;91468.78;5072886;28;20035;-90
2021/10/11 09:01:04;;;;;;;8.90;3.50;;;;;;;6.17;63.46;91466.22;5057373;28;20027;-89
2021/10/11 09:03:30;;;;;;;6.95;3.50;;;;;;;6.36;67.64;91462.75;5073166;28;20038;-90
2021/10/11 09:06:11;;;;;;;10.20;4.57;;;;;;;6.55;72.25;91455.66;5055950;28;20021;-89
2021/10/11 09:08:37;;;;;;;10.02;5.13;;;;;;;6.95;62.70;91453.28;5057165;28;20070;-90
2021/10/11 09:11:04;;;;;;;10.10;5.00;;;;;;;7.10;66.98;91449.59;5038243;28;20028;-88
2021/10/11 09:13:38;;;;;;;9.27;5.07;;;;;;;7.17;63.88;91458.50;5055282;28;20128;-89
2021/10/11 09:16:16;;;;;;;8.90;4.30;;;;;;;7.31;60.13;91458.44;5057006;28;20024;-90
2021/10/11 09:18:48;;;;;;;7.25;4.15;;;;;;;7.50;61.06;91458.28;5073045;28;20546;-90
2021/10/11 09:21:13;;;;;;;8.77;4.47;;;;;;;7.71;60.93;91453.38;5037049;28;20032;-90
2021/10/11 09:23:39;;;;;;;7.95;4.28;;;;;;;7.69;56.60;91452.13;5035660;28;20040;-89
2021/10/11 09:26:17;;;;;;;8.48;4.00;;;;;;;8.59;64.35;91460.50;5035511;28;20025;-86
2021/10/11 09:28:55;;;;;;;6.65;3.83;;;;;;;8.59;52.75;91466.44;5035736;28;20021;-88
2021/10/11 09:31:34;;;;;;;5.47;3.55;;;;;;;8.60;55.09;91467.97;5019735;28;20033;-88
2021/10/11 09:34:00;;;;;;;8.10;4.00;;;;;;;8.79;55.39;91459.91;5052234;28;20104;-88
2021/10/11 09:36:26;;;;;;;7.45;2.97;;;;;;;9.09;59.49;91457.53;5052784;28;20028;-88
2021/10/11 09:39:01;;;;;;;6.20;3.63;;;;;;;9.26;51.75;91456.78;5052533;28;20125;-89
2021/10/11 09:41:27;;;;;;;9.30;3.90;;;;;;;9.24;52.37;91454.47;5035784;28;20480;-88
2021/10/11 09:43:52;;;;;;;7.63;3.40;;;;;;;9.02;46.40;91452.00;5052581;28;20029;-89
2021/10/11 09:46:19;;;;;;;5.20;3.00;;;;;;;9.01;49.85;91445.25;5035153;28;20028;-90
2021/10/11 09:48:55;;;;;;;5.00;2.95;;;;;;;8.88;46.87;91449.53;5035344;28;20116;-91
2021/10/11 09:51:21;;;;;;;4.90;3.08;;;;;;;8.91;50.32;91445.59;5053180;28;20033;-90
2021/10/11 09:53:48;;;;;;;8.57;3.60;;;;;;;8.88;51.41;91439.16;5035486;28;20392;-89
2021/10/11 09:56:13;;;;;;;4.20;2.50;;;;;;;8.66;43.06;91445.22;5046341;28;20028;-90
2021/10/11 09:58:39;;;;;;;5.15;2.67;;;;;;;8.81;47.33;91446.63;5071392;28;20017;-90
2021/10/11 10:01:04;;;;;;;7.45;2.97;;;;;;;8.97;47.69;91450.31;5054712;28;20024;-90
2021/10/11 10:03:32;;;;;;;5.85;2.90;;;;;;;9.05;47.45;91452.16;5055141;28;20423;-90
2021/10/11 10:05:57;;;;;;;5.60;2.65;;;;;;;9.12;47.24;91449.13;5038895;28;20046;-90
2021/10/11 10:08:25;;;;;;;4.47;2.45;;;;;;;9.16;44.77;91451.88;5038287;28;20020;-90
2021/10/11 10:10:55;;;;;;;5.65;2.72;;;;;;;9.20;42.97;91447.59;5038933;28;20024;-90
2021/10/11 10:13:21;;;;;;;4.65;2.50;;;;;;;9.15;43.66;91450.31;5055141;28;20037;-90
2021/10/11 10:15:47;;;;;;;5.75;2.90;;;;;;;9.16;43.69;91447.44;5071229;28;20021;-90
2021/10/11 10:18:16;;;;;;;5.22;2.35;;;;;;;9.33;41.07;91441.47;5071692;28;20024;-88
2021/10/11 10:20:58;;;;;;;4.88;2.25;;;;;;;9.26;41.06;91444.53;5034521;28;20036;-91
2021/10/11 10:23:29;;;;;;;4.80;2.78;;;;;;;9.34;43.55;91448.19;5051271;28;20025;-89
2021/10/11 10:26:00;;;;;;;6.95;3.58;;;;;;;9.34;46.49;91443.75;5051508;28;20496;-90
2021/10/11 10:28:28;;;;;;;6.13;3.25;;;;;;;9.26;44.57;91448.97;5053275;28;20047;-89
2021/10/11 10:31:01;;;;;;;6.10;3.10;;;;;;;9.25;43.76;91448.19;5048264;28;20036;-92
2021/10/11 10:33:40;;;;;;;7.70;2.97;;;;;;;9.25;43.42;91452.63;5019107;28;20053;-91
2021/10/11 10:36:26;;;;;;;5.88;3.47;;;;;;;9.39;45.32;91447.25;5034768;28;20024;-92
2021/10/11 10:39:02;;;;;;;5.05;3.58;;;;;;;9.58;49.24;91448.47;5051167;28;20464;-92
2021/10/11 10:41:28;;;;;;;4.30;2.85;;;;;;;9.87;47.69;91439.25;5050833;28;20167;-92
2021/10/11 10:43:54;;;;;;;6.50;3.47;;;;;;;9.97;48.78;91444.13;5018868;28;20119;-93
2021/10/11 10:46:19;;;;;;;5.80;3.20;;;;;;;9.97;44.38;91441.50;5051802;28;20025;-92
2021/10/11 10:48:52;;;;;;;5.97;4.03;;;;;;;9.80;47.56;91444.16;5019214;28;20028;-91
2021/10/11 10:51:18;;;;;;;5.50;3.55;;;;;;;9.87;48.63;91448.91;5019734;28;20421;-92
2021/10/11 10:53:55;;;;;;;8.07;3.58;;;;;;;9.66;48.54;91443.56;5019168;28;20017;-91
2021/10/11 10:56:21;;;;;;;6.38;3.88;;;;;;;9.57;50.21;91449.53;5021157;28;20021;-92
2021/10/11 10:58:49;;;;;;;6.90;3.83;;;;;;;9.57;50.12;91443.56;5038295;28;20541;-92
2021/10/11 11:01:14;;;;;;;10.68;4.38;;;;;;;9.75;50.63;91431.28;5019190;28;20481;-91
2021/10/11 11:03:40;;;;;;;7.15;3.70;;;;;;;9.71;50.70;91435.59;5035412;28;20035;-91
2021/10/11 11:06:06;;;;;;;8.20;4.20;;;;;;;9.94;50.68;91434.31;5018572;28;20037;-91
2021/10/11 11:08:32;;;;;;;8.38;4.57;;;;;;;9.89;51.78;91431.09;5018530;28;20017;-92
2021/10/11 11:11:02;;;;;;;7.97;4.60;;;;;;;9.87;53.21;91425.47;5045555;28;20081;-93
2021/10/11 11:13:27;;;;;;;10.50;5.15;;;;;;;9.86;53.07;91426.53;5076712;28;20104;-95
2021/10/11 11:15:52;;;;;;;8.85;4.32;;;;;;;9.72;51.50;91422.28;5059976;28;20010;-95
2021/10/11 11:18:21;;;;;;;9.43;4.50;;;;;;;9.70;51.57;91418.44;5075438;28;20484;-90
2021/10/11 11:20:47;;;;;;;7.82;4.40;;;;;;;9.89;52.93;91421.47;5055389;28;20059;-91
2021/10/11 11:23:16;;;;;;;10.32;5.25;;;;;;;9.89;52.11;91416.25;5037617;28;20048;-91
2021/10/11 11:25:43;;;;;;;13.40;5.28;;;;;;;9.97;52.78;91412.88;5071426;28;20044;-92
2021/10/11 11:28:10;;;;;;;7.20;4.47;;;;;;;10.11;53.77;91407.47;5054646;28;20082;-91
2021/10/11 11:30:36;;;;;;;6.90;4.28;;;;;;;10.18;51.98;91412.97;5038396;28;20024;-91